sensor_id;sensor_type;location;lat;lon;timestamp;P1;durP1;ratioP1;P2;durP2;ratioP2
67195;SDS011;54122;53.538;49.366;2022-08-04T00:00:09;24.65;;;10.02;;
67195;SDS011;54122;53.538;49.366;2022-08-04T00:05:53;31.40;;;11.15;;
67195;SDS011;54122;53.538;49.366;2022-08-04T00:08:34;20.02;;;10.30;;
67195;SDS011;54122;53.538;49.366;2022-08-04T00:11:12;27.38;;;12.10;;
67195;SDS011;54122;53.538;49.366;2022-08-04T00:13:47;27.73;;;11.43;;
67195;SDS011;54122;53.538;49.366;2022-08-04T00:16:20;38.67;;;10.40;;
67195;SDS011;54122;53.538;49.366;2022-08-04T00:18:49;32.88;;;11.02;;
67195;SDS011;54122;53.538;49.366;2022-08-04T00:21:24;30.55;;;10.13;;
67195;SDS011;54122;53.538;49.366;2022-08-04T00:23:53;21.00;;;10.65;;
67195;SDS011;54122;53.538;49.366;2022-08-04T00:26:21;31.75;;;11.18;;
67195;SDS011;54122;53.538;49.366;2022-08-04T00:28:47;35.05;;;11.15;;
67195;SDS011;54122;53.538;49.366;2022-08-04T00:31:14;39.88;;;11.18;;
67195;SDS011;54122;53.538;49.366;2022-08-04T00:33:44;33.65;;;11.38;;
67195;SDS011;54122;53.538;49.366;2022-08-04T00:36:11;41.88;;;11.38;;
67195;SDS011;54122;53.538;49.366;2022-08-04T00:38:41;31.52;;;10.63;;
67195;SDS011;54122;53.538;49.366;2022-08-04T00:46:30;28.08;;;10.85;;
67195;SDS011;54122;53.538;49.366;2022-08-04T01:00:26;32.03;;;11.98;;
67195;SDS011;54122;53.538;49.366;2022-08-04T01:14:07;27.60;;;9.70;;
67195;SDS011;54122;53.538;49.366;2022-08-04T01:16:59;27.20;;;10.02;;
67195;SDS011;54122;53.538;49.366;2022-08-04T01:22:28;29.23;;;9.30;;
67195;SDS011;54122;53.538;49.366;2022-08-04T01:25:17;24.60;;;10.27;;
67195;SDS011;54122;53.538;49.366;2022-08-04T01:30:43;23.65;;;11.00;;
67195;SDS011;54122;53.538;49.366;2022-08-04T01:33:13;23.47;;;10.13;;
67195;SDS011;54122;53.538;49.366;2022-08-04T01:36:01;27.23;;;10.40;;
67195;SDS011;54122;53.538;49.366;2022-08-04T01:41:02;22.88;;;9.30;;
67195;SDS011;54122;53.538;49.366;2022-08-04T01:43:31;20.35;;;8.93;;
67195;SDS011;54122;53.538;49.366;2022-08-04T01:46:05;31.83;;;10.43;;
67195;SDS011;54122;53.538;49.366;2022-08-04T01:48:37;22.17;;;10.32;;
67195;SDS011;54122;53.538;49.366;2022-08-04T01:51:06;27.15;;;10.45;;
67195;SDS011;54122;53.538;49.366;2022-08-04T01:53:35;20.25;;;10.05;;
67195;SDS011;54122;53.538;49.366;2022-08-04T01:56:06;20.85;;;9.30;;
67195;SDS011;54122;53.538;49.366;2022-08-04T01:58:34;26.10;;;9.43;;
67195;SDS011;54122;53.538;49.366;2022-08-04T02:01:04;17.33;;;8.52;;
67195;SDS011;54122;53.538;49.366;2022-08-04T02:03:31;19.85;;;9.55;;
67195;SDS011;54122;53.538;49.366;2022-08-04T02:06:03;16.73;;;8.93;;
67195;SDS011;54122;53.538;49.366;2022-08-04T02:11:21;16.50;;;7.63;;
67195;SDS011;54122;53.538;49.366;2022-08-04T02:19:18;18.90;;;7.47;;
67195;SDS011;54122;53.538;49.366;2022-08-04T02:21:56;19.63;;;7.88;;
67195;SDS011;54122;53.538;49.366;2022-08-04T02:24:30;22.98;;;8.40;;
67195;SDS011;54122;53.538;49.366;2022-08-04T02:26:57;16.20;;;7.70;;
67195;SDS011;54122;53.538;49.366;2022-08-04T02:29:34;23.52;;;7.93;;
67195;SDS011;54122;53.538;49.366;2022-08-04T02:32:23;14.23;;;7.45;;
67195;SDS011;54122;53.538;49.366;2022-08-04T02:37:22;15.93;;;6.95;;
67195;SDS011;54122;53.538;49.366;2022-08-04T02:39:54;14.13;;;7.13;;
67195;SDS011;54122;53.538;49.366;2022-08-04T02:42:23;22.65;;;7.15;;
67195;SDS011;54122;53.538;49.366;2022-08-04T02:44:52;12.25;;;6.57;;
67195;SDS011;54122;53.538;49.366;2022-08-04T02:47:23;23.42;;;6.80;;
67195;SDS011;54122;53.538;49.366;2022-08-04T02:49:51;15.00;;;7.25;;
67195;SDS011;54122;53.538;49.366;2022-08-04T02:52:18;18.52;;;6.95;;
67195;SDS011;54122;53.538;49.366;2022-08-04T02:54:46;15.23;;;7.10;;
67195;SDS011;54122;53.538;49.366;2022-08-04T02:57:16;14.15;;;6.78;;
67195;SDS011;54122;53.538;49.366;2022-08-04T03:05:33;21.90;;;9.05;;
67195;SDS011;54122;53.538;49.366;2022-08-04T03:19:48;29.90;;;11.15;;
67195;SDS011;54122;53.538;49.366;2022-08-04T03:31:17;29.45;;;11.60;;
67195;SDS011;54122;53.538;49.366;2022-08-04T03:37:18;38.30;;;12.05;;
67195;SDS011;54122;53.538;49.366;2022-08-04T03:45:43;24.55;;;12.13;;
67195;SDS011;54122;53.538;49.366;2022-08-04T03:57:29;30.48;;;13.20;;
67195;SDS011;54122;53.538;49.366;2022-08-04T04:00:02;33.92;;;13.55;;
67195;SDS011;54122;53.538;49.366;2022-08-04T04:08:35;31.33;;;12.95;;
67195;SDS011;54122;53.538;49.366;2022-08-04T04:11:35;26.95;;;13.27;;
67195;SDS011;54122;53.538;49.366;2022-08-04T04:14:21;28.52;;;13.38;;
67195;SDS011;54122;53.538;49.366;2022-08-04T04:19:59;32.00;;;13.68;;
67195;SDS011;54122;53.538;49.366;2022-08-04T04:31:25;29.42;;;12.85;;
67195;SDS011;54122;53.538;49.366;2022-08-04T04:39:51;47.90;;;17.05;;
67195;SDS011;54122;53.538;49.366;2022-08-04T04:48:45;41.70;;;15.68;;
67195;SDS011;54122;53.538;49.366;2022-08-04T04:56:27;52.53;;;18.98;;
67195;SDS011;54122;53.538;49.366;2022-08-04T04:59:11;62.42;;;22.70;;
67195;SDS011;54122;53.538;49.366;2022-08-04T05:13:22;114.13;;;40.30;;
67195;SDS011;54122;53.538;49.366;2022-08-04T05:15:55;106.47;;;39.67;;
67195;SDS011;54122;53.538;49.366;2022-08-04T05:18:46;90.32;;;35.60;;
67195;SDS011;54122;53.538;49.366;2022-08-04T05:21:36;83.50;;;30.25;;
67195;SDS011;54122;53.538;49.366;2022-08-04T05:24:08;75.55;;;25.60;;
67195;SDS011;54122;53.538;49.366;2022-08-04T05:26:40;61.92;;;23.23;;
67195;SDS011;54122;53.538;49.366;2022-08-04T05:29:22;60.00;;;21.80;;
67195;SDS011;54122;53.538;49.366;2022-08-04T05:31:54;47.50;;;20.52;;
67195;SDS011;54122;53.538;49.366;2022-08-04T05:34:27;71.93;;;21.98;;
67195;SDS011;54122;53.538;49.366;2022-08-04T05:36:59;42.75;;;17.58;;
67195;SDS011;54122;53.538;49.366;2022-08-04T05:39:32;52.85;;;17.02;;
67195;SDS011;54122;53.538;49.366;2022-08-04T05:42:03;44.20;;;18.63;;
67195;SDS011;54122;53.538;49.366;2022-08-04T05:44:30;50.75;;;19.85;;
67195;SDS011;54122;53.538;49.366;2022-08-04T05:46:59;46.10;;;19.08;;
67195;SDS011;54122;53.538;49.366;2022-08-04T05:49:28;37.30;;;16.38;;
67195;SDS011;54122;53.538;49.366;2022-08-04T05:51:57;39.67;;;15.43;;
67195;SDS011;54122;53.538;49.366;2022-08-04T05:54:26;41.22;;;16.20;;
67195;SDS011;54122;53.538;49.366;2022-08-04T05:56:55;43.20;;;17.40;;
67195;SDS011;54122;53.538;49.366;2022-08-04T05:59:24;36.90;;;17.73;;
67195;SDS011;54122;53.538;49.366;2022-08-04T06:01:55;62.05;;;19.77;;
67195;SDS011;54122;53.538;49.366;2022-08-04T06:04:30;56.28;;;22.10;;
67195;SDS011;54122;53.538;49.366;2022-08-04T06:07:05;44.00;;;17.05;;
67195;SDS011;54122;53.538;49.366;2022-08-04T06:09:32;33.05;;;16.25;;
67195;SDS011;54122;53.538;49.366;2022-08-04T06:11:59;51.70;;;18.35;;
67195;SDS011;54122;53.538;49.366;2022-08-04T06:14:38;52.80;;;18.27;;
67195;SDS011;54122;53.538;49.366;2022-08-04T06:17:10;37.03;;;16.20;;
67195;SDS011;54122;53.538;49.366;2022-08-04T06:19:41;37.30;;;17.90;;
67195;SDS011;54122;53.538;49.366;2022-08-04T06:22:09;47.88;;;18.17;;
67195;SDS011;54122;53.538;49.366;2022-08-04T06:24:38;42.83;;;15.35;;
67195;SDS011;54122;53.538;49.366;2022-08-04T06:27:07;43.35;;;17.30;;
67195;SDS011;54122;53.538;49.366;2022-08-04T06:29:34;52.97;;;17.83;;
67195;SDS011;54122;53.538;49.366;2022-08-04T06:32:06;51.00;;;17.63;;
67195;SDS011;54122;53.538;49.366;2022-08-04T06:34:53;50.10;;;17.30;;
67195;SDS011;54122;53.538;49.366;2022-08-04T06:37:22;50.42;;;17.90;;
67195;SDS011;54122;53.538;49.366;2022-08-04T06:39:50;68.45;;;18.38;;
67195;SDS011;54122;53.538;49.366;2022-08-04T06:42:17;61.72;;;20.50;;
67195;SDS011;54122;53.538;49.366;2022-08-04T06:44:50;60.40;;;20.15;;
67195;SDS011;54122;53.538;49.366;2022-08-04T06:47:21;50.28;;;20.33;;
67195;SDS011;54122;53.538;49.366;2022-08-04T06:49:53;56.20;;;19.83;;
67195;SDS011;54122;53.538;49.366;2022-08-04T06:52:22;44.58;;;18.48;;
67195;SDS011;54122;53.538;49.366;2022-08-04T06:54:51;37.55;;;14.30;;
67195;SDS011;54122;53.538;49.366;2022-08-04T06:57:20;43.63;;;14.53;;
67195;SDS011;54122;53.538;49.366;2022-08-04T06:59:50;57.47;;;16.02;;
67195;SDS011;54122;53.538;49.366;2022-08-04T07:02:23;49.08;;;15.90;;
67195;SDS011;54122;53.538;49.366;2022-08-04T07:07:24;38.92;;;15.20;;
67195;SDS011;54122;53.538;49.366;2022-08-04T07:09:50;38.72;;;14.18;;
67195;SDS011;54122;53.538;49.366;2022-08-04T07:12:20;32.55;;;12.05;;
67195;SDS011;54122;53.538;49.366;2022-08-04T07:14:49;39.92;;;12.50;;
67195;SDS011;54122;53.538;49.366;2022-08-04T07:17:16;29.60;;;10.77;;
67195;SDS011;54122;53.538;49.366;2022-08-04T07:19:46;31.20;;;9.77;;
67195;SDS011;54122;53.538;49.366;2022-08-04T07:22:12;28.38;;;9.57;;
67195;SDS011;54122;53.538;49.366;2022-08-04T07:24:41;23.70;;;6.43;;
67195;SDS011;54122;53.538;49.366;2022-08-04T07:27:08;31.25;;;6.97;;
67195;SDS011;54122;53.538;49.366;2022-08-04T07:29:35;25.23;;;5.78;;
67195;SDS011;54122;53.538;49.366;2022-08-04T07:32:03;21.05;;;5.75;;
67195;SDS011;54122;53.538;49.366;2022-08-04T07:34:32;28.17;;;9.10;;
67195;SDS011;54122;53.538;49.366;2022-08-04T07:36:59;33.78;;;9.00;;
67195;SDS011;54122;53.538;49.366;2022-08-04T07:39:28;35.65;;;8.18;;
67195;SDS011;54122;53.538;49.366;2022-08-04T07:42:02;20.08;;;5.88;;
67195;SDS011;54122;53.538;49.366;2022-08-04T07:44:31;11.82;;;4.63;;
67195;SDS011;54122;53.538;49.366;2022-08-04T07:47:03;13.45;;;4.00;;
67195;SDS011;54122;53.538;49.366;2022-08-04T07:49:34;12.20;;;4.95;;
67195;SDS011;54122;53.538;49.366;2022-08-04T07:52:03;10.13;;;4.88;;
67195;SDS011;54122;53.538;49.366;2022-08-04T07:54:35;14.05;;;4.65;;
67195;SDS011;54122;53.538;49.366;2022-08-04T07:57:03;10.52;;;5.15;;
67195;SDS011;54122;53.538;49.366;2022-08-04T07:59:30;15.95;;;5.22;;
67195;SDS011;54122;53.538;49.366;2022-08-04T08:01:58;18.88;;;5.43;;
67195;SDS011;54122;53.538;49.366;2022-08-04T08:04:27;13.18;;;5.38;;
67195;SDS011;54122;53.538;49.366;2022-08-04T08:06:55;18.95;;;5.25;;
67195;SDS011;54122;53.538;49.366;2022-08-04T08:09:23;15.85;;;6.63;;
67195;SDS011;54122;53.538;49.366;2022-08-04T08:11:51;30.08;;;10.52;;
67195;SDS011;54122;53.538;49.366;2022-08-04T08:14:19;16.98;;;5.97;;
67195;SDS011;54122;53.538;49.366;2022-08-04T08:16:46;10.73;;;4.90;;
67195;SDS011;54122;53.538;49.366;2022-08-04T08:19:12;18.25;;;5.75;;
67195;SDS011;54122;53.538;49.366;2022-08-04T08:21:39;12.25;;;5.70;;
67195;SDS011;54122;53.538;49.366;2022-08-04T08:24:10;9.35;;;4.75;;
67195;SDS011;54122;53.538;49.366;2022-08-04T08:26:37;35.50;;;12.70;;
67195;SDS011;54122;53.538;49.366;2022-08-04T08:29:06;29.83;;;13.18;;
67195;SDS011;54122;53.538;49.366;2022-08-04T08:31:33;41.75;;;13.32;;
67195;SDS011;54122;53.538;49.366;2022-08-04T08:34:02;31.67;;;11.95;;
67195;SDS011;54122;53.538;49.366;2022-08-04T08:36:37;24.15;;;11.43;;
67195;SDS011;54122;53.538;49.366;2022-08-04T08:39:27;34.97;;;9.93;;
67195;SDS011;54122;53.538;49.366;2022-08-04T08:56:06;29.95;;;11.88;;
67195;SDS011;54122;53.538;49.366;2022-08-04T09:04:27;20.83;;;8.60;;
67195;SDS011;54122;53.538;49.366;2022-08-04T09:15:14;32.95;;;8.68;;
67195;SDS011;54122;53.538;49.366;2022-08-04T09:17:47;46.40;;;9.18;;
67195;SDS011;54122;53.538;49.366;2022-08-04T09:20:31;39.58;;;9.73;;
67195;SDS011;54122;53.538;49.366;2022-08-04T09:26:03;33.95;;;8.52;;
67195;SDS011;54122;53.538;49.366;2022-08-04T09:28:47;51.72;;;8.93;;
67195;SDS011;54122;53.538;49.366;2022-08-04T09:31:29;26.95;;;8.35;;
67195;SDS011;54122;53.538;49.366;2022-08-04T09:34:22;31.77;;;7.97;;
67195;SDS011;54122;53.538;49.366;2022-08-04T09:37:24;29.02;;;7.85;;
67195;SDS011;54122;53.538;49.366;2022-08-04T09:40:10;23.42;;;6.93;;
67195;SDS011;54122;53.538;49.366;2022-08-04T09:42:42;25.23;;;8.52;;
67195;SDS011;54122;53.538;49.366;2022-08-04T09:45:42;19.17;;;7.88;;
67195;SDS011;54122;53.538;49.366;2022-08-04T09:48:29;19.00;;;6.97;;
67195;SDS011;54122;53.538;49.366;2022-08-04T10:02:43;31.20;;;5.80;;
67195;SDS011;54122;53.538;49.366;2022-08-04T10:05:20;19.05;;;5.20;;
67195;SDS011;54122;53.538;49.366;2022-08-04T10:11:15;14.88;;;4.35;;
67195;SDS011;54122;53.538;49.366;2022-08-04T10:13:56;26.00;;;5.72;;
67195;SDS011;54122;53.538;49.366;2022-08-04T10:16:32;64.22;;;7.38;;
67195;SDS011;54122;53.538;49.366;2022-08-04T10:19:30;24.65;;;6.25;;
67195;SDS011;54122;53.538;49.366;2022-08-04T10:30:15;19.90;;;5.03;;
67195;SDS011;54122;53.538;49.366;2022-08-04T10:35:18;27.55;;;4.45;;
67195;SDS011;54122;53.538;49.366;2022-08-04T10:38:04;17.92;;;5.60;;
67195;SDS011;54122;53.538;49.366;2022-08-04T10:40:54;14.52;;;4.57;;
67195;SDS011;54122;53.538;49.366;2022-08-04T10:46:15;32.38;;;4.22;;
67195;SDS011;54122;53.538;49.366;2022-08-04T10:51:28;35.80;;;4.53;;
67195;SDS011;54122;53.538;49.366;2022-08-04T10:54:05;9.80;;;2.88;;
67195;SDS011;54122;53.538;49.366;2022-08-04T10:56:42;23.27;;;3.35;;
67195;SDS011;54122;53.538;49.366;2022-08-04T10:59:34;22.98;;;3.65;;
67195;SDS011;54122;53.538;49.366;2022-08-04T11:02:16;17.98;;;3.15;;
67195;SDS011;54122;53.538;49.366;2022-08-04T11:08:06;6.88;;;2.45;;
67195;SDS011;54122;53.538;49.366;2022-08-04T11:10:39;25.23;;;3.08;;
67195;SDS011;54122;53.538;49.366;2022-08-04T11:13:16;9.88;;;2.88;;
67195;SDS011;54122;53.538;49.366;2022-08-04T11:15:51;5.50;;;2.70;;
67195;SDS011;54122;53.538;49.366;2022-08-04T11:21:24;27.52;;;4.25;;
67195;SDS011;54122;53.538;49.366;2022-08-04T11:24:01;16.20;;;3.50;;
67195;SDS011;54122;53.538;49.366;2022-08-04T11:26:43;11.13;;;3.10;;
67195;SDS011;54122;53.538;49.366;2022-08-04T11:31:44;18.48;;;4.03;;
67195;SDS011;54122;53.538;49.366;2022-08-04T11:34:25;13.20;;;3.10;;
67195;SDS011;54122;53.538;49.366;2022-08-04T11:37:14;18.08;;;2.95;;
67195;SDS011;54122;53.538;49.366;2022-08-04T11:39:49;12.65;;;2.85;;
67195;SDS011;54122;53.538;49.366;2022-08-04T11:42:20;23.55;;;3.72;;
67195;SDS011;54122;53.538;49.366;2022-08-04T11:45:06;34.65;;;4.80;;
67195;SDS011;54122;53.538;49.366;2022-08-04T11:48:04;46.75;;;5.97;;
67195;SDS011;54122;53.538;49.366;2022-08-04T11:50:37;38.58;;;4.55;;
67195;SDS011;54122;53.538;49.366;2022-08-04T11:53:13;38.30;;;4.95;;
67195;SDS011;54122;53.538;49.366;2022-08-04T11:55:47;15.57;;;3.60;;
67195;SDS011;54122;53.538;49.366;2022-08-04T11:58:15;7.53;;;3.28;;
67195;SDS011;54122;53.538;49.366;2022-08-04T12:01:02;56.58;;;5.45;;
67195;SDS011;54122;53.538;49.366;2022-08-04T12:06:16;15.25;;;4.00;;
67195;SDS011;54122;53.538;49.366;2022-08-04T12:20:24;28.65;;;4.43;;
67195;SDS011;54122;53.538;49.366;2022-08-04T12:22:55;24.77;;;4.78;;
67195;SDS011;54122;53.538;49.366;2022-08-04T12:25:25;24.55;;;5.00;;
67195;SDS011;54122;53.538;49.366;2022-08-04T12:28:07;16.25;;;3.90;;
67195;SDS011;54122;53.538;49.366;2022-08-04T12:30:48;24.58;;;5.40;;
67195;SDS011;54122;53.538;49.366;2022-08-04T12:33:37;37.75;;;5.28;;
67195;SDS011;54122;53.538;49.366;2022-08-04T12:36:30;39.40;;;6.38;;
67195;SDS011;54122;53.538;49.366;2022-08-04T12:39:08;25.10;;;6.85;;
67195;SDS011;54122;53.538;49.366;2022-08-04T12:44:46;9.48;;;3.90;;
67195;SDS011;54122;53.538;49.366;2022-08-04T12:47:22;12.85;;;4.80;;
67195;SDS011;54122;53.538;49.366;2022-08-04T12:49:53;9.85;;;3.78;;
67195;SDS011;54122;53.538;49.366;2022-08-04T12:52:32;12.32;;;4.22;;
67195;SDS011;54122;53.538;49.366;2022-08-04T12:55:06;10.43;;;4.38;;
67195;SDS011;54122;53.538;49.366;2022-08-04T12:57:34;14.57;;;4.13;;
67195;SDS011;54122;53.538;49.366;2022-08-04T13:00:02;12.38;;;3.47;;
67195;SDS011;54122;53.538;49.366;2022-08-04T13:02:30;11.25;;;3.88;;
67195;SDS011;54122;53.538;49.366;2022-08-04T13:05:03;17.00;;;3.63;;
67195;SDS011;54122;53.538;49.366;2022-08-04T13:07:36;15.57;;;4.20;;
67195;SDS011;54122;53.538;49.366;2022-08-04T13:10:14;14.40;;;4.28;;
67195;SDS011;54122;53.538;49.366;2022-08-04T13:12:52;14.05;;;4.68;;
67195;SDS011;54122;53.538;49.366;2022-08-04T13:15:25;11.25;;;3.90;;
67195;SDS011;54122;53.538;49.366;2022-08-04T13:18:01;9.90;;;3.70;;
67195;SDS011;54122;53.538;49.366;2022-08-04T13:20:31;9.98;;;4.55;;
67195;SDS011;54122;53.538;49.366;2022-08-04T13:23:02;10.25;;;4.60;;
67195;SDS011;54122;53.538;49.366;2022-08-04T13:25:36;9.23;;;4.45;;
67195;SDS011;54122;53.538;49.366;2022-08-04T13:31:10;10.10;;;3.72;;
67195;SDS011;54122;53.538;49.366;2022-08-04T13:33:40;9.25;;;3.58;;
67195;SDS011;54122;53.538;49.366;2022-08-04T13:36:09;14.07;;;4.10;;
67195;SDS011;54122;53.538;49.366;2022-08-04T13:38:44;12.20;;;4.20;;
67195;SDS011;54122;53.538;49.366;2022-08-04T13:41:35;60.65;;;40.30;;
67195;SDS011;54122;53.538;49.366;2022-08-04T13:44:08;136.98;;;102.90;;
67195;SDS011;54122;53.538;49.366;2022-08-04T13:46:37;138.88;;;106.28;;
67195;SDS011;54122;53.538;49.366;2022-08-04T13:49:10;37.03;;;26.63;;
67195;SDS011;54122;53.538;49.366;2022-08-04T13:51:40;16.67;;;11.38;;
67195;SDS011;54122;53.538;49.366;2022-08-04T13:54:11;25.00;;;20.48;;
67195;SDS011;54122;53.538;49.366;2022-08-04T13:56:39;48.92;;;35.35;;
67195;SDS011;54122;53.538;49.366;2022-08-04T13:59:10;94.68;;;81.15;;
67195;SDS011;54122;53.538;49.366;2022-08-04T14:01:44;21.60;;;10.32;;
67195;SDS011;54122;53.538;49.366;2022-08-04T14:04:21;9.90;;;4.32;;
67195;SDS011;54122;53.538;49.366;2022-08-04T14:06:54;7.32;;;4.07;;
67195;SDS011;54122;53.538;49.366;2022-08-04T14:09:28;11.35;;;4.78;;
67195;SDS011;54122;53.538;49.366;2022-08-04T14:12:11;7.13;;;4.35;;
67195;SDS011;54122;53.538;49.366;2022-08-04T14:17:14;12.05;;;6.93;;
67195;SDS011;54122;53.538;49.366;2022-08-04T14:25:14;14.95;;;3.58;;
67195;SDS011;54122;53.538;49.366;2022-08-04T14:30:45;12.80;;;3.95;;
67195;SDS011;54122;53.538;49.366;2022-08-04T14:33:06;10.13;;;4.38;;
67195;SDS011;54122;53.538;49.366;2022-08-04T14:35:36;12.00;;;6.00;;
67195;SDS011;54122;53.538;49.366;2022-08-04T14:38:07;15.15;;;5.40;;
67195;SDS011;54122;53.538;49.366;2022-08-04T14:40:37;77.47;;;20.92;;
67195;SDS011;54122;53.538;49.366;2022-08-04T14:43:06;31.17;;;9.82;;
67195;SDS011;54122;53.538;49.366;2022-08-04T14:48:12;31.42;;;8.18;;
67195;SDS011;54122;53.538;49.366;2022-08-04T14:50:41;29.83;;;7.47;;
67195;SDS011;54122;53.538;49.366;2022-08-04T14:53:12;8.82;;;4.82;;
67195;SDS011;54122;53.538;49.366;2022-08-04T14:55:44;22.23;;;5.97;;
67195;SDS011;54122;53.538;49.366;2022-08-04T14:58:19;14.70;;;4.20;;
67195;SDS011;54122;53.538;49.366;2022-08-04T15:00:48;11.27;;;3.60;;
67195;SDS011;54122;53.538;49.366;2022-08-04T15:03:17;17.17;;;5.13;;
67195;SDS011;54122;53.538;49.366;2022-08-04T15:05:45;10.70;;;4.13;;
67195;SDS011;54122;53.538;49.366;2022-08-04T15:08:12;8.25;;;3.40;;
67195;SDS011;54122;53.538;49.366;2022-08-04T15:10:40;8.52;;;3.97;;
67195;SDS011;54122;53.538;49.366;2022-08-04T15:13:08;5.35;;;3.55;;
67195;SDS011;54122;53.538;49.366;2022-08-04T15:15:40;18.30;;;3.85;;
67195;SDS011;54122;53.538;49.366;2022-08-04T15:18:09;13.10;;;6.37;;
67195;SDS011;54122;53.538;49.366;2022-08-04T15:20:36;13.73;;;9.40;;
67195;SDS011;54122;53.538;49.366;2022-08-04T15:23:05;10.82;;;3.72;;
67195;SDS011;54122;53.538;49.366;2022-08-04T15:25:36;32.72;;;10.27;;
67195;SDS011;54122;53.538;49.366;2022-08-04T15:28:18;10.07;;;3.72;;
67195;SDS011;54122;53.538;49.366;2022-08-04T15:30:48;8.68;;;3.90;;
67195;SDS011;54122;53.538;49.366;2022-08-04T15:33:16;11.38;;;8.10;;
67195;SDS011;54122;53.538;49.366;2022-08-04T15:35:54;7.45;;;4.22;;
67195;SDS011;54122;53.538;49.366;2022-08-04T15:38:51;13.50;;;5.80;;
67195;SDS011;54122;53.538;49.366;2022-08-04T15:50:29;13.85;;;9.27;;
67195;SDS011;54122;53.538;49.366;2022-08-04T15:55:44;17.23;;;6.20;;
67195;SDS011;54122;53.538;49.366;2022-08-04T15:58:11;17.88;;;9.93;;
67195;SDS011;54122;53.538;49.366;2022-08-04T16:06:00;16.83;;;6.53;;
67195;SDS011;54122;53.538;49.366;2022-08-04T16:22:06;13.95;;;4.95;;
67195;SDS011;54122;53.538;49.366;2022-08-04T16:24:40;16.50;;;7.53;;
67195;SDS011;54122;53.538;49.366;2022-08-04T16:27:09;19.80;;;9.10;;
67195;SDS011;54122;53.538;49.366;2022-08-04T16:29:37;12.70;;;7.75;;
67195;SDS011;54122;53.538;49.366;2022-08-04T16:32:08;12.43;;;5.13;;
67195;SDS011;54122;53.538;49.366;2022-08-04T16:37:33;16.00;;;5.70;;
67195;SDS011;54122;53.538;49.366;2022-08-04T16:42:52;13.35;;;6.15;;
67195;SDS011;54122;53.538;49.366;2022-08-04T16:45:39;20.02;;;6.57;;
67195;SDS011;54122;53.538;49.366;2022-08-04T16:48:35;14.77;;;8.32;;
67195;SDS011;54122;53.538;49.366;2022-08-04T16:51:05;10.63;;;6.70;;
67195;SDS011;54122;53.538;49.366;2022-08-04T16:53:40;28.73;;;11.65;;
67195;SDS011;54122;53.538;49.366;2022-08-04T16:56:10;27.63;;;12.70;;
67195;SDS011;54122;53.538;49.366;2022-08-04T16:58:44;24.80;;;12.18;;
67195;SDS011;54122;53.538;49.366;2022-08-04T17:01:13;30.02;;;12.15;;
67195;SDS011;54122;53.538;49.366;2022-08-04T17:03:51;30.02;;;11.68;;
67195;SDS011;54122;53.538;49.366;2022-08-04T17:06:22;27.80;;;12.55;;
67195;SDS011;54122;53.538;49.366;2022-08-04T17:08:48;16.13;;;8.32;;
67195;SDS011;54122;53.538;49.366;2022-08-04T17:11:15;17.02;;;6.80;;
67195;SDS011;54122;53.538;49.366;2022-08-04T17:13:45;16.45;;;6.20;;
67195;SDS011;54122;53.538;49.366;2022-08-04T17:16:14;13.07;;;5.67;;
67195;SDS011;54122;53.538;49.366;2022-08-04T17:18:45;13.30;;;5.30;;
67195;SDS011;54122;53.538;49.366;2022-08-04T17:21:18;13.27;;;6.10;;
67195;SDS011;54122;53.538;49.366;2022-08-04T17:23:51;36.85;;;12.23;;
67195;SDS011;54122;53.538;49.366;2022-08-04T17:26:21;16.77;;;7.07;;
67195;SDS011;54122;53.538;49.366;2022-08-04T17:28:51;14.90;;;6.30;;
67195;SDS011;54122;53.538;49.366;2022-08-04T17:31:21;10.63;;;5.82;;
67195;SDS011;54122;53.538;49.366;2022-08-04T17:33:54;15.40;;;6.47;;
67195;SDS011;54122;53.538;49.366;2022-08-04T17:36:24;20.15;;;7.40;;
67195;SDS011;54122;53.538;49.366;2022-08-04T17:39:01;20.05;;;6.82;;
67195;SDS011;54122;53.538;49.366;2022-08-04T17:41:57;13.63;;;7.03;;
67195;SDS011;54122;53.538;49.366;2022-08-04T17:44:34;19.38;;;8.13;;
67195;SDS011;54122;53.538;49.366;2022-08-04T17:47:21;17.90;;;7.50;;
67195;SDS011;54122;53.538;49.366;2022-08-04T17:50:02;24.20;;;7.40;;
67195;SDS011;54122;53.538;49.366;2022-08-04T17:52:32;19.38;;;7.28;;
67195;SDS011;54122;53.538;49.366;2022-08-04T17:55:00;17.58;;;7.50;;
67195;SDS011;54122;53.538;49.366;2022-08-04T17:57:27;18.85;;;7.68;;
67195;SDS011;54122;53.538;49.366;2022-08-04T17:59:54;27.15;;;9.05;;
67195;SDS011;54122;53.538;49.366;2022-08-04T18:02:23;16.77;;;8.48;;
67195;SDS011;54122;53.538;49.366;2022-08-04T18:04:54;16.80;;;8.85;;
67195;SDS011;54122;53.538;49.366;2022-08-04T18:12:23;19.08;;;8.38;;
67195;SDS011;54122;53.538;49.366;2022-08-04T18:14:58;22.58;;;8.82;;
67195;SDS011;54122;53.538;49.366;2022-08-04T18:17:36;27.50;;;9.02;;
67195;SDS011;54122;53.538;49.366;2022-08-04T18:20:07;23.27;;;9.40;;
67195;SDS011;54122;53.538;49.366;2022-08-04T18:22:38;20.35;;;8.90;;
67195;SDS011;54122;53.538;49.366;2022-08-04T18:25:09;26.60;;;8.88;;
67195;SDS011;54122;53.538;49.366;2022-08-04T18:30:22;17.25;;;8.52;;
67195;SDS011;54122;53.538;49.366;2022-08-04T18:32:54;22.48;;;9.10;;
67195;SDS011;54122;53.538;49.366;2022-08-04T18:35:21;20.20;;;8.88;;
67195;SDS011;54122;53.538;49.366;2022-08-04T18:37:49;27.17;;;9.98;;
67195;SDS011;54122;53.538;49.366;2022-08-04T18:40:17;26.58;;;9.90;;
67195;SDS011;54122;53.538;49.366;2022-08-04T18:42:44;27.15;;;10.05;;
67195;SDS011;54122;53.538;49.366;2022-08-04T18:45:11;22.58;;;10.35;;
67195;SDS011;54122;53.538;49.366;2022-08-04T18:47:39;26.98;;;9.43;;
67195;SDS011;54122;53.538;49.366;2022-08-04T18:50:06;25.00;;;9.50;;
67195;SDS011;54122;53.538;49.366;2022-08-04T18:52:33;25.98;;;10.50;;
67195;SDS011;54122;53.538;49.366;2022-08-04T18:55:02;25.77;;;10.38;;
67195;SDS011;54122;53.538;49.366;2022-08-04T18:57:29;26.08;;;9.63;;
67195;SDS011;54122;53.538;49.366;2022-08-04T18:59:58;23.20;;;9.27;;
67195;SDS011;54122;53.538;49.366;2022-08-04T19:02:24;29.98;;;10.15;;
67195;SDS011;54122;53.538;49.366;2022-08-04T19:04:51;26.25;;;9.30;;
67195;SDS011;54122;53.538;49.366;2022-08-04T19:07:18;19.05;;;9.10;;
67195;SDS011;54122;53.538;49.366;2022-08-04T19:09:44;31.67;;;10.07;;
67195;SDS011;54122;53.538;49.366;2022-08-04T19:12:12;33.08;;;9.40;;
67195;SDS011;54122;53.538;49.366;2022-08-04T19:14:39;24.17;;;8.98;;
67195;SDS011;54122;53.538;49.366;2022-08-04T19:17:06;26.33;;;9.40;;
67195;SDS011;54122;53.538;49.366;2022-08-04T19:19:34;23.08;;;9.05;;
67195;SDS011;54122;53.538;49.366;2022-08-04T19:22:01;22.65;;;9.23;;
67195;SDS011;54122;53.538;49.366;2022-08-04T19:24:27;25.05;;;9.25;;
67195;SDS011;54122;53.538;49.366;2022-08-04T19:26:54;28.58;;;10.13;;
67195;SDS011;54122;53.538;49.366;2022-08-04T19:32:46;27.33;;;9.00;;
67195;SDS011;54122;53.538;49.366;2022-08-04T19:35:13;23.85;;;9.00;;
67195;SDS011;54122;53.538;49.366;2022-08-04T19:37:41;27.65;;;9.13;;
67195;SDS011;54122;53.538;49.366;2022-08-04T19:40:08;19.98;;;8.55;;
67195;SDS011;54122;53.538;49.366;2022-08-04T19:52:03;28.33;;;9.02;;
67195;SDS011;54122;53.538;49.366;2022-08-04T19:54:32;25.30;;;8.85;;
67195;SDS011;54122;53.538;49.366;2022-08-04T19:56:58;21.55;;;8.65;;